createdAt,value
2017-11-05T00:00:03.004Z,4.90
2017-11-05T00:02:29.387Z,4.90
2017-11-05T00:04:56.524Z,5.00
2017-11-05T00:07:22.936Z,5.00
2017-11-05T00:09:49.363Z,5.00
2017-11-05T00:12:15.746Z,4.80
2017-11-05T00:14:42.893Z,4.70
2017-11-05T00:17:10.017Z,4.90
2017-11-05T00:19:36.406Z,4.90
2017-11-05T00:22:02.805Z,4.70
2017-11-05T00:24:29.187Z,4.60
2017-11-05T00:26:55.575Z,4.60
2017-11-05T00:29:22.875Z,4.60
2017-11-05T00:31:49.285Z,4.50
2017-11-05T00:34:15.686Z,4.50
2017-11-05T00:36:42.086Z,4.60
2017-11-05T00:39:08.474Z,4.60
2017-11-05T00:41:34.879Z,4.70
2017-11-05T00:44:02.038Z,4.60
2017-11-05T00:46:29.162Z,4.60
2017-11-05T00:48:55.543Z,4.70
2017-11-05T00:51:21.939Z,4.70
2017-11-05T00:53:48.324Z,4.90
2017-11-05T00:56:14.737Z,4.90
2017-11-05T00:58:41.142Z,4.80
2017-11-05T01:01:08.263Z,4.90
2017-11-05T01:03:34.674Z,4.90
2017-11-05T01:06:01.064Z,4.90
2017-11-05T01:08:28.195Z,4.80
2017-11-05T01:10:54.583Z,4.80
2017-11-05T01:13:21.003Z,4.70
2017-11-05T01:15:47.408Z,4.60
2017-11-05T01:18:14.543Z,4.70
2017-11-05T01:20:40.940Z,4.70
2017-11-05T01:23:07.356Z,4.60
2017-11-05T01:25:33.746Z,4.60
2017-11-05T01:28:00.880Z,4.70
2017-11-05T01:30:27.292Z,4.60
2017-11-05T01:32:53.691Z,4.70
2017-11-05T01:35:20.098Z,4.70
2017-11-05T01:37:47.235Z,4.90
2017-11-05T01:40:13.640Z,4.90
2017-11-05T01:42:40.065Z,4.90
2017-11-05T01:45:06.518Z,4.90
2017-11-05T01:47:32.899Z,5.00
2017-11-05T01:49:59.285Z,5.10
2017-11-05T01:52:25.718Z,5.10
2017-11-05T01:54:52.138Z,5.10
2017-11-05T01:57:18.589Z,5.20
2017-11-05T01:59:45.753Z,5.20
2017-11-05T02:02:12.923Z,5.30
2017-11-05T02:04:40.102Z,5.30
2017-11-05T02:07:06.544Z,5.30
2017-11-05T02:09:32.988Z,5.40
2017-11-05T02:11:59.431Z,5.40
2017-11-05T02:14:27.349Z,5.50
2017-11-05T02:16:53.867Z,5.50
2017-11-05T02:19:21.028Z,5.50
2017-11-05T02:21:47.465Z,5.50
2017-11-05T02:24:14.667Z,5.40
2017-11-05T02:26:41.108Z,5.40
2017-11-05T02:29:09.031Z,5.30
2017-11-05T02:31:35.489Z,5.30
2017-11-05T02:34:01.943Z,5.30
2017-11-05T02:36:29.851Z,5.50
2017-11-05T02:38:56.260Z,5.50
2017-11-05T02:41:23.382Z,5.70
2017-11-05T02:43:49.808Z,5.70
2017-11-05T02:46:16.256Z,5.70
2017-11-05T02:48:42.699Z,5.70
2017-11-05T02:51:09.899Z,5.90
2017-11-05T02:53:36.319Z,5.90
2017-11-05T02:56:02.759Z,5.80
2017-11-05T02:58:30.096Z,5.80
2017-11-05T03:00:57.257Z,5.80
2017-11-05T03:03:23.722Z,5.80
2017-11-05T03:05:50.166Z,5.90
2017-11-05T03:08:16.587Z,6.00
2017-11-05T03:10:43.016Z,6.00
2017-11-05T03:13:09.454Z,6.00
2017-11-05T03:15:35.897Z,6.00
2017-11-05T03:18:02.344Z,6.00
2017-11-05T03:20:28.805Z,6.00
2017-11-05T03:22:55.975Z,6.20
2017-11-05T03:25:22.412Z,6.20
2017-11-05T03:27:48.884Z,6.20
2017-11-05T03:30:15.320Z,6.30
2017-11-05T03:32:41.784Z,6.40
2017-11-05T03:35:08.977Z,6.50
2017-11-05T03:37:35.427Z,6.40
2017-11-05T03:40:01.883Z,6.40
2017-11-05T03:42:29.062Z,6.50
2017-11-05T03:44:56.215Z,6.80
2017-11-05T03:47:23.435Z,7.00
2017-11-05T03:49:49.907Z,7.00
2017-11-05T03:52:16.320Z,6.90
2017-11-05T03:54:43.470Z,7.00
2017-11-05T03:57:10.679Z,7.10
2017-11-05T03:59:37.067Z,7.10
2017-11-05T04:02:03.531Z,7.10
2017-11-05T04:04:29.992Z,7.10
2017-11-05T04:06:57.967Z,7.20
2017-11-05T04:09:25.875Z,7.00
2017-11-05T04:11:52.303Z,7.00
2017-11-05T04:14:18.751Z,7.10
2017-11-05T04:16:45.204Z,7.10
2017-11-05T04:19:11.645Z,7.10
2017-11-05T04:21:38.094Z,7.10
2017-11-05T04:24:04.515Z,7.10
2017-11-05T04:26:30.933Z,7.00
2017-11-05T04:28:57.372Z,7.00
2017-11-05T04:31:23.808Z,7.00
2017-11-05T04:33:50.235Z,7.00
2017-11-05T04:36:16.663Z,7.10
2017-11-05T04:38:43.083Z,7.10
2017-11-05T04:41:09.527Z,7.10
2017-11-05T04:43:35.942Z,7.20
2017-11-05T04:46:02.367Z,7.20
2017-11-05T04:48:29.055Z,7.20
2017-11-05T04:50:55.503Z,7.30
2017-11-05T04:53:23.387Z,7.50
2017-11-05T04:55:50.579Z,7.50
2017-11-05T04:58:17.036Z,7.50
2017-11-05T05:00:43.447Z,7.40
2017-11-05T05:03:09.892Z,7.50
2017-11-05T05:05:36.374Z,7.50
2017-11-05T05:08:02.818Z,7.60
2017-11-05T05:10:29.280Z,7.60
2017-11-05T05:12:55.725Z,7.50
2017-11-05T05:15:22.155Z,7.60
2017-11-05T05:17:48.614Z,7.20
2017-11-05T05:20:16.527Z,7.40
2017-11-05T05:22:42.950Z,7.40
2017-11-05T05:25:10.136Z,7.30
2017-11-05T05:27:36.572Z,7.40
2017-11-05T05:30:02.983Z,7.60
2017-11-05T05:32:29.458Z,7.60
2017-11-05T05:34:55.896Z,7.70
2017-11-05T05:37:22.333Z,7.70
2017-11-05T05:39:49.504Z,7.70
2017-11-05T05:42:16.666Z,7.70
2017-11-05T05:44:43.104Z,7.70
2017-11-05T05:47:09.533Z,7.70
2017-11-05T05:49:35.965Z,7.70
2017-11-05T05:52:02.406Z,7.50
2017-11-05T05:54:28.827Z,7.30
2017-11-05T05:56:55.234Z,7.30
2017-11-05T05:59:22.425Z,7.20
2017-11-05T06:01:48.846Z,7.20
2017-11-05T06:04:16.019Z,7.50
2017-11-05T06:06:42.460Z,7.40
2017-11-05T06:09:08.901Z,7.60
2017-11-05T06:11:35.319Z,7.70
2017-11-05T06:14:01.780Z,7.50
2017-11-05T06:16:28.223Z,7.20
2017-11-05T06:18:55.414Z,7.40
2017-11-05T06:21:22.591Z,7.10
2017-11-05T06:23:49.026Z,7.00
2017-11-05T06:26:15.481Z,6.50
2017-11-05T06:28:42.143Z,6.80
2017-11-05T06:31:09.298Z,6.90
2017-11-05T06:33:36.461Z,6.70
2017-11-05T06:36:03.635Z,6.70
2017-11-05T06:38:30.067Z,6.70
2017-11-05T06:40:56.510Z,6.60
2017-11-05T06:43:22.959Z,6.70
2017-11-05T06:45:49.396Z,7.00
2017-11-05T06:48:15.819Z,7.30
2017-11-05T06:50:42.248Z,7.20
2017-11-05T06:53:08.692Z,7.10
2017-11-05T06:55:35.124Z,6.90
2017-11-05T06:58:01.568Z,6.90
2017-11-05T07:00:28.004Z,7.00
2017-11-05T07:02:54.500Z,6.80
2017-11-05T07:05:20.921Z,6.90
2017-11-05T07:07:47.367Z,7.20
2017-11-05T07:10:19.703Z,7.30
2017-11-05T07:12:46.876Z,7.50
2017-11-05T07:15:13.293Z,7.50
2017-11-05T07:17:40.448Z,7.40
2017-11-05T07:20:07.602Z,7.20
2017-11-05T07:22:34.037Z,7.20
2017-11-05T07:25:00.488Z,7.20
2017-11-05T07:27:26.952Z,7.30
2017-11-05T07:29:53.592Z,7.40
2017-11-05T07:32:20.016Z,7.60
2017-11-05T07:34:46.456Z,7.60
2017-11-05T07:37:12.874Z,7.40
2017-11-05T07:39:39.294Z,7.50
2017-11-05T07:42:05.729Z,7.80
2017-11-05T07:44:32.162Z,7.90
2017-11-05T07:46:58.610Z,7.20
2017-11-05T07:49:25.065Z,6.70
2017-11-05T07:51:52.985Z,6.10
2017-11-05T07:54:19.905Z,6.10
2017-11-05T07:56:47.072Z,6.80
2017-11-05T07:59:13.520Z,6.80
2017-11-05T08:01:39.963Z,7.10
2017-11-05T08:04:06.423Z,7.00
2017-11-05T08:06:32.889Z,7.00
2017-11-05T08:08:59.337Z,6.60
2017-11-05T08:11:25.862Z,6.70
2017-11-05T08:13:53.040Z,7.00
2017-11-05T08:16:19.438Z,7.00
2017-11-05T08:18:46.632Z,7.00
2017-11-05T08:21:13.068Z,7.00
2017-11-05T08:23:39.499Z,6.90
2017-11-05T08:26:05.997Z,7.10
2017-11-05T08:28:32.415Z,7.10
2017-11-05T08:30:58.874Z,7.40
2017-11-05T08:33:25.351Z,7.50
2017-11-05T08:35:51.788Z,7.50
2017-11-05T08:38:18.230Z,7.40
2017-11-05T08:40:44.645Z,7.30
2017-11-05T08:43:11.085Z,7.40
2017-11-05T08:45:37.502Z,7.80
2017-11-05T08:48:04.013Z,7.80
2017-11-05T08:50:30.429Z,8.00
2017-11-05T08:52:57.584Z,7.30
2017-11-05T08:55:23.976Z,7.20
2017-11-05T08:57:51.144Z,6.90
2017-11-05T09:00:17.549Z,6.80
2017-11-05T09:02:43.991Z,6.70
2017-11-05T09:05:10.408Z,7.00
2017-11-05T09:07:36.837Z,7.00
2017-11-05T09:10:03.253Z,6.90
2017-11-05T09:12:29.698Z,6.80
2017-11-05T09:14:56.156Z,6.90
2017-11-05T09:17:24.092Z,7.00
2017-11-05T09:19:50.498Z,7.00
2017-11-05T09:22:17.665Z,7.10
2017-11-05T09:24:44.096Z,7.10
2017-11-05T09:27:10.509Z,7.30
2017-11-05T09:29:36.886Z,7.70
2017-11-05T09:32:03.347Z,7.60
2017-11-05T09:34:30.492Z,7.70
2017-11-05T09:36:56.864Z,7.70
2017-11-05T09:39:23.280Z,7.80
2017-11-05T09:41:49.680Z,8.10
2017-11-05T09:44:17.571Z,8.40
2017-11-05T09:46:44.708Z,8.30
2017-11-05T09:49:11.831Z,7.30
2017-11-05T09:51:38.247Z,7.30
2017-11-05T09:54:04.989Z,6.80
2017-11-05T09:56:31.393Z,6.80
2017-11-05T09:58:57.792Z,7.00
2017-11-05T10:01:24.183Z,7.10
2017-11-05T10:03:50.589Z,7.50
2017-11-05T10:06:16.999Z,7.50
2017-11-05T10:08:44.138Z,7.10
2017-11-05T10:11:10.537Z,7.10
2017-11-05T10:13:36.934Z,7.30
2017-11-05T10:16:03.316Z,7.60
2017-11-05T10:18:29.722Z,7.60
2017-11-05T10:20:56.133Z,7.70
2017-11-05T10:23:22.576Z,7.30
2017-11-05T10:25:48.971Z,7.20
2017-11-05T10:28:15.385Z,7.00
2017-11-05T10:30:41.791Z,7.10
2017-11-05T10:33:08.225Z,7.20
2017-11-05T10:35:34.627Z,7.30
2017-11-05T10:38:01.049Z,7.20
2017-11-05T10:40:28.207Z,7.40
2017-11-05T10:42:54.643Z,7.40
2017-11-05T10:45:21.071Z,7.50
2017-11-05T10:47:47.453Z,7.80
2017-11-05T10:50:13.859Z,8.30
2017-11-05T10:52:40.302Z,8.30
2017-11-05T10:55:08.227Z,8.20
2017-11-05T10:57:35.448Z,8.00
2017-11-05T11:00:03.379Z,7.80
2017-11-05T11:02:29.781Z,7.70
2017-11-05T11:04:56.778Z,7.90
2017-11-05T11:07:23.184Z,7.60
2017-11-05T11:09:50.913Z,7.30
2017-11-05T11:12:18.231Z,7.60
2017-11-05T11:14:44.595Z,7.60
2017-11-05T11:17:11.723Z,7.10
2017-11-05T11:19:39.606Z,7.30
2017-11-05T11:22:05.988Z,7.30
2017-11-05T11:24:32.384Z,7.20
2017-11-05T11:26:59.540Z,7.40
2017-11-05T11:29:25.960Z,7.40
2017-11-05T11:31:53.092Z,7.30
2017-11-05T11:34:19.485Z,7.20
2017-11-05T11:36:45.881Z,7.20
2017-11-05T11:39:13.021Z,7.90
2017-11-05T11:41:40.171Z,8.10
2017-11-05T11:44:07.323Z,8.10
2017-11-05T11:46:34.457Z,8.10
2017-11-05T11:49:00.851Z,8.10
2017-11-05T11:51:27.260Z,8.00
2017-11-05T11:53:53.659Z,8.10
2017-11-05T11:56:20.053Z,8.50
2017-11-05T11:58:46.448Z,8.70
2017-11-05T12:01:12.895Z,8.50
2017-11-05T12:03:39.302Z,8.30
2017-11-05T12:06:06.540Z,8.40
2017-11-05T12:08:32.960Z,8.40
2017-11-05T12:10:59.399Z,8.00
2017-11-05T12:13:27.294Z,7.90
2017-11-05T12:15:53.687Z,7.90
2017-11-05T12:18:20.052Z,7.90
2017-11-05T12:20:47.181Z,7.70
2017-11-05T12:23:13.567Z,7.70
2017-11-05T12:25:39.943Z,7.30
2017-11-05T12:28:07.850Z,7.30
2017-11-05T12:30:34.318Z,7.30
2017-11-05T12:33:00.731Z,7.20
2017-11-05T12:35:27.190Z,7.20
2017-11-05T12:37:53.604Z,7.70
2017-11-05T12:40:20.058Z,8.00
2017-11-05T12:42:46.469Z,8.40
2017-11-05T12:45:12.890Z,8.70
2017-11-05T12:47:39.354Z,9.00
2017-11-05T12:50:05.786Z,9.00
2017-11-05T12:52:32.223Z,8.70
2017-11-05T12:54:59.375Z,8.40
2017-11-05T12:57:25.883Z,8.40
2017-11-05T12:59:52.325Z,8.60
2017-11-05T13:02:18.769Z,8.90
2017-11-05T13:04:46.676Z,9.00
2017-11-05T13:07:13.804Z,9.10
2017-11-05T13:09:40.952Z,8.80
2017-11-05T13:12:08.844Z,8.50
2017-11-05T13:14:35.986Z,8.60
2017-11-05T13:17:02.424Z,8.60
2017-11-05T13:19:29.569Z,8.70
2017-11-05T13:21:56.693Z,8.70
2017-11-05T13:24:23.114Z,8.70
2017-11-05T13:26:49.609Z,8.50
2017-11-05T13:29:16.007Z,8.40
2017-11-05T13:31:42.423Z,8.50
2017-11-05T13:34:08.817Z,8.70
2017-11-05T13:36:35.239Z,8.50
2017-11-05T13:39:02.635Z,8.30
2017-11-05T13:41:29.042Z,8.40
2017-11-05T13:43:56.253Z,8.90
2017-11-05T13:46:23.441Z,9.10
2017-11-05T13:48:49.965Z,9.10
2017-11-05T13:51:16.554Z,9.30
2017-11-05T13:53:42.964Z,9.30
2017-11-05T13:56:09.394Z,9.50
2017-11-05T13:58:35.800Z,9.20
2017-11-05T14:01:02.199Z,8.70
2017-11-05T14:03:28.642Z,9.00
2017-11-05T14:05:55.032Z,8.70
2017-11-05T14:08:22.225Z,8.90
2017-11-05T14:10:49.350Z,8.60
2017-11-05T14:13:15.756Z,8.70
2017-11-05T14:15:42.171Z,8.90
2017-11-05T14:18:08.597Z,8.70
2017-11-05T14:20:35.081Z,8.80
2017-11-05T14:23:01.503Z,8.90
2017-11-05T14:25:27.892Z,9.20
2017-11-05T14:27:55.025Z,8.90
2017-11-05T14:30:22.188Z,8.90
2017-11-05T14:32:48.590Z,8.90
2017-11-05T14:35:14.979Z,8.90
2017-11-05T14:37:41.371Z,8.90
2017-11-05T14:40:07.802Z,8.70
2017-11-05T14:42:34.235Z,9.10
2017-11-05T14:45:01.412Z,9.30
2017-11-05T14:47:27.991Z,9.30
2017-11-05T14:49:54.883Z,9.60
2017-11-05T14:52:21.348Z,9.60
2017-11-05T14:54:47.782Z,9.70
2017-11-05T14:57:14.833Z,9.90
2017-11-05T14:59:41.318Z,9.90
2017-11-05T15:02:08.503Z,9.90
2017-11-05T15:04:34.961Z,9.90
2017-11-05T15:07:01.367Z,10.00
2017-11-05T15:09:27.757Z,10.20
2017-11-05T15:11:54.936Z,10.20
2017-11-05T15:14:21.395Z,10.20
2017-11-05T15:16:47.813Z,10.20
2017-11-05T15:19:14.234Z,10.40
2017-11-05T15:21:40.677Z,10.40
2017-11-05T15:24:07.101Z,10.40
2017-11-05T15:26:33.533Z,10.40
2017-11-05T15:28:59.997Z,10.40
2017-11-05T15:31:26.427Z,10.50
2017-11-05T15:33:52.867Z,10.40
2017-11-05T15:36:19.289Z,10.50
2017-11-05T15:38:45.743Z,10.40
2017-11-05T15:41:12.158Z,10.40
2017-11-05T15:43:38.621Z,10.30
2017-11-05T15:46:06.608Z,10.30
2017-11-05T15:48:33.815Z,10.20
2017-11-05T15:51:00.319Z,10.20
2017-11-05T15:53:26.829Z,10.10
2017-11-05T15:55:54.016Z,10.20
2017-11-05T15:58:20.506Z,10.20
2017-11-05T16:00:47.707Z,10.20
2017-11-05T16:03:14.117Z,10.20
2017-11-05T16:05:40.540Z,10.20
2017-11-05T16:08:07.694Z,10.10
2017-11-05T16:10:34.109Z,10.10
2017-11-05T16:13:00.536Z,10.20
2017-11-05T16:15:26.950Z,9.70
2017-11-05T16:17:53.440Z,9.90
2017-11-05T16:20:19.896Z,10.00
2017-11-05T16:22:46.310Z,9.70
2017-11-05T16:25:12.736Z,9.70
2017-11-05T16:27:39.133Z,9.50
2017-11-05T16:30:05.563Z,9.60
2017-11-05T16:32:31.947Z,9.80
2017-11-05T16:34:58.389Z,9.70
2017-11-05T16:37:24.836Z,9.80
2017-11-05T16:39:51.479Z,9.30
2017-11-05T16:42:17.888Z,9.50
2017-11-05T16:44:44.290Z,9.70
2017-11-05T16:47:11.428Z,9.80
2017-11-05T16:49:38.578Z,9.90
2017-11-05T16:52:05.699Z,9.90
2017-11-05T16:54:32.106Z,9.90
2017-11-05T16:56:58.525Z,9.80
2017-11-05T16:59:24.951Z,9.80
2017-11-05T17:01:51.353Z,9.80
2017-11-05T17:04:18.553Z,10.00
2017-11-05T17:06:44.972Z,10.00
2017-11-05T17:09:11.392Z,10.10
2017-11-05T17:11:37.817Z,10.10
2017-11-05T17:14:04.287Z,10.00
2017-11-05T17:16:30.725Z,10.10
2017-11-05T17:18:57.166Z,10.10
2017-11-05T17:21:23.599Z,10.20
2017-11-05T17:23:50.112Z,10.20
2017-11-05T17:26:16.607Z,10.10
2017-11-05T17:28:43.800Z,10.30
2017-11-05T17:31:10.266Z,10.30
2017-11-05T17:33:36.724Z,10.20
2017-11-05T17:36:03.899Z,10.20
2017-11-05T17:38:30.343Z,10.20
2017-11-05T17:40:56.723Z,10.20
2017-11-05T17:43:23.885Z,10.10
2017-11-05T17:45:51.036Z,10.10
2017-11-05T17:48:18.185Z,10.20
2017-11-05T17:50:45.367Z,10.30
2017-11-05T17:53:11.775Z,10.30
2017-11-05T17:55:38.940Z,10.30
2017-11-05T17:58:05.340Z,10.30
2017-11-05T18:00:31.787Z,10.40
2017-11-05T18:02:58.935Z,10.40
2017-11-05T18:05:26.078Z,10.40
2017-11-05T18:07:52.485Z,10.40
2017-11-05T18:10:18.884Z,10.40
2017-11-05T18:12:45.317Z,10.30
2017-11-05T18:15:11.731Z,10.20
2017-11-05T18:17:38.922Z,10.10
2017-11-05T18:20:05.355Z,10.10
2017-11-05T18:22:31.756Z,10.20
2017-11-05T18:24:58.539Z,10.20
2017-11-05T18:27:26.428Z,9.80
2017-11-05T18:29:53.591Z,10.00
2017-11-05T18:32:20.740Z,10.00
2017-11-05T18:34:47.898Z,9.90
2017-11-05T18:37:15.070Z,10.00
2017-11-05T18:39:41.472Z,10.00
2017-11-05T18:42:08.672Z,10.00
2017-11-05T18:44:35.084Z,10.00
2017-11-05T18:47:01.509Z,10.10
2017-11-05T18:49:27.915Z,10.10
2017-11-05T18:51:55.058Z,10.00
2017-11-05T18:54:22.220Z,10.00
2017-11-05T18:56:49.377Z,10.00
2017-11-05T18:59:15.828Z,10.00
2017-11-05T19:01:42.278Z,9.90
2017-11-05T19:04:08.707Z,9.90
2017-11-05T19:06:35.372Z,9.90
2017-11-05T19:09:01.784Z,9.80
2017-11-05T19:11:28.178Z,9.80
2017-11-05T19:13:54.621Z,9.70
2017-11-05T19:16:21.069Z,9.80
2017-11-05T19:18:47.490Z,9.90
2017-11-05T19:21:13.913Z,10.00
2017-11-05T19:23:41.045Z,10.10
2017-11-05T19:26:08.171Z,10.10
2017-11-05T19:28:34.565Z,10.10
2017-11-05T19:31:00.971Z,10.00
2017-11-05T19:33:28.205Z,9.90
2017-11-05T19:35:54.587Z,9.90
2017-11-05T19:38:20.980Z,10.00
2017-11-05T19:40:48.125Z,10.00
2017-11-05T19:43:15.247Z,10.00
2017-11-05T19:45:41.648Z,10.00
2017-11-05T19:48:08.046Z,10.00
2017-11-05T19:50:35.175Z,9.80
2017-11-05T19:53:03.044Z,9.80
2017-11-05T19:55:30.209Z,9.80
2017-11-05T19:57:57.319Z,9.80
2017-11-05T20:00:23.754Z,9.80
2017-11-05T20:02:50.196Z,9.80
2017-11-05T20:05:16.599Z,9.70
2017-11-05T20:07:42.996Z,9.70
2017-11-05T20:10:10.148Z,9.70
2017-11-05T20:12:37.286Z,9.80
2017-11-05T20:15:03.733Z,9.80
2017-11-05T20:17:30.889Z,9.70
2017-11-05T20:19:57.257Z,9.70
2017-11-05T20:22:23.655Z,9.60
2017-11-05T20:24:50.778Z,9.00
2017-11-05T20:27:17.168Z,9.00
2017-11-05T20:29:43.545Z,9.10
2017-11-05T20:32:09.927Z,9.00
2017-11-05T20:34:36.301Z,9.20
2017-11-05T20:37:04.163Z,9.10
2017-11-05T20:39:30.557Z,9.10
2017-11-05T20:41:56.949Z,9.20
2017-11-05T20:44:24.073Z,9.20
2017-11-05T20:46:50.469Z,9.20
2017-11-05T20:49:16.870Z,9.20
2017-11-05T20:51:43.264Z,9.30
2017-11-05T20:54:10.439Z,9.70
2017-11-05T20:56:37.621Z,9.90
2017-11-05T20:59:04.025Z,9.90
2017-11-05T21:01:31.176Z,10.10
2017-11-05T21:03:58.308Z,10.10
2017-11-05T21:06:25.502Z,10.10
2017-11-05T21:08:51.901Z,10.10
2017-11-05T21:11:19.040Z,10.10
2017-11-05T21:13:45.417Z,10.00
2017-11-05T21:16:11.833Z,9.90
2017-11-05T21:18:38.247Z,9.40
2017-11-05T21:21:04.679Z,9.20
2017-11-05T21:23:31.822Z,9.00
2017-11-05T21:25:58.950Z,8.90
2017-11-05T21:28:25.355Z,8.90
2017-11-05T21:30:51.723Z,8.80
2017-11-05T21:33:18.095Z,9.10
2017-11-05T21:35:44.487Z,9.30
2017-11-05T21:38:12.379Z,9.70
2017-11-05T21:40:39.492Z,9.70
2017-11-05T21:43:05.872Z,9.70
2017-11-05T21:45:33.011Z,9.80
2017-11-05T21:48:00.127Z,9.70
2017-11-05T21:50:26.511Z,9.70
2017-11-05T21:52:52.905Z,9.70
2017-11-05T21:55:20.763Z,9.70
2017-11-05T21:57:47.146Z,9.70
2017-11-05T22:00:13.569Z,9.90
2017-11-05T22:02:39.967Z,9.70
2017-11-05T22:05:06.398Z,9.90
2017-11-05T22:07:32.768Z,10.00
2017-11-05T22:09:59.139Z,10.10
2017-11-05T22:12:25.556Z,9.90
2017-11-05T22:14:51.997Z,9.90
2017-11-05T22:17:18.375Z,10.00
2017-11-05T22:19:45.491Z,10.00
2017-11-05T22:22:11.982Z,10.00
2017-11-05T22:24:38.433Z,9.90
2017-11-05T22:27:04.846Z,9.90
2017-11-05T22:29:31.245Z,9.80
2017-11-05T22:31:57.632Z,9.70
2017-11-05T22:34:24.015Z,9.80
2017-11-05T22:36:51.154Z,10.00
2017-11-05T22:39:19.020Z,10.00
2017-11-05T22:41:45.450Z,9.90
2017-11-05T22:44:11.851Z,9.90
2017-11-05T22:46:38.400Z,9.90
2017-11-05T22:49:04.763Z,9.90
2017-11-05T22:51:31.152Z,9.80
2017-11-05T22:53:57.533Z,9.80
2017-11-05T22:56:23.972Z,9.80
2017-11-05T22:58:51.130Z,10.00
2017-11-05T23:01:18.293Z,9.90
2017-11-05T23:03:44.683Z,9.90
2017-11-05T23:06:11.077Z,9.70
2017-11-05T23:08:37.475Z,9.60
2017-11-05T23:11:04.604Z,9.60
2017-11-05T23:13:31.781Z,9.40
2017-11-05T23:15:58.172Z,9.40
2017-11-05T23:18:26.041Z,9.40
2017-11-05T23:20:53.941Z,9.50
2017-11-05T23:23:21.056Z,9.50
2017-11-05T23:25:48.175Z,9.70
2017-11-05T23:28:14.832Z,9.70
2017-11-05T23:30:41.240Z,9.80
2017-11-05T23:33:07.645Z,9.80
2017-11-05T23:35:34.036Z,9.70
2017-11-05T23:38:00.406Z,9.70
2017-11-05T23:40:27.561Z,9.80
2017-11-05T23:42:53.961Z,9.80
2017-11-05T23:45:20.424Z,9.90
2017-11-05T23:47:47.555Z,9.80
2017-11-05T23:50:14.688Z,9.80
2017-11-05T23:52:41.812Z,9.90
2017-11-05T23:55:08.206Z,9.80
2017-11-05T23:57:34.578Z,9.90
